Time;durP1;ratioP1;P1;durP2;ratioP2;P2;SDS_P1;SDS_P2;PMS_P1;PMS_P2;Temp;Humidity;BMP_temperature;BMP_pressure;BME280_temperature;BME280_humidity;BME280_pressure;Samples;Min_cycle;Max_cycle;Signal;HPM_P1;HPM_P2
2020/12/05 00:01:43;;;;;;;0.30;0.30;;;2.80;99.90;;;;;;5053719;28;20432;-61
2020/12/05 00:04:09;;;;;;;0.30;0.30;;;2.80;99.90;;;;;;5034681;28;20170;-62
2020/12/05 00:06:35;;;;;;;0.40;0.40;;;2.90;99.90;;;;;;5035008;28;20181;-61
2020/12/05 00:09:00;;;;;;;0.83;0.83;;;2.90;99.90;;;;;;5053440;28;20216;-61
2020/12/05 00:11:27;;;;;;;0.30;0.30;;;2.90;99.90;;;;;;5054354;28;20539;-62
2020/12/05 00:13:53;;;;;;;1.50;0.68;;;2.90;99.90;;;;;;5037037;28;20621;-62
2020/12/05 00:16:19;;;;;;;0.30;0.30;;;2.90;99.90;;;;;;5034919;28;20201;-62
2020/12/05 00:18:46;;;;;;;0.30;0.30;;;3.00;99.90;;;;;;5050029;28;20451;-61
2020/12/05 00:21:15;;;;;;;0.85;0.73;;;3.00;99.90;;;;;;5054163;28;20238;-61
2020/12/05 00:23:41;;;;;;;2.38;2.28;;;2.90;99.90;;;;;;5039757;28;20247;-62
2020/12/05 00:26:07;;;;;;;0.80;0.67;;;3.10;99.90;;;;;;5043898;28;20173;-62
2020/12/05 00:28:32;;;;;;;0.37;0.37;;;3.10;99.90;;;;;;5053404;28;20188;-62
2020/12/05 00:30:58;;;;;;;0.30;0.30;;;3.00;99.90;;;;;;5034108;28;20292;-62
2020/12/05 00:33:24;;;;;;;0.30;0.30;;;3.00;99.90;;;;;;5033965;28;20169;-61
2020/12/05 00:35:49;;;;;;;0.50;0.50;;;3.00;99.90;;;;;;5052453;28;20540;-62
2020/12/05 00:38:15;;;;;;;3.63;2.10;;;3.00;99.90;;;;;;5054152;28;20718;-63
2020/12/05 00:40:40;;;;;;;0.60;0.60;;;3.00;99.90;;;;;;5036496;28;20178;-60
2020/12/05 00:43:06;;;;;;;11.97;2.67;;;3.00;99.90;;;;;;5033976;28;20200;-61
2020/12/05 00:45:32;;;;;;;0.30;0.30;;;3.00;99.90;;;;;;5049026;28;20263;-61
2020/12/05 00:47:57;;;;;;;0.30;0.30;;;3.00;99.90;;;;;;5054194;28;20261;-63
2020/12/05 00:50:23;;;;;;;1.90;1.27;;;3.00;99.90;;;;;;5039891;28;20185;-62
2020/12/05 00:52:48;;;;;;;0.40;0.40;;;3.00;99.90;;;;;;5033805;28;20217;-63
2020/12/05 00:55:14;;;;;;;0.47;0.47;;;3.00;99.90;;;;;;5049451;28;20185;-62
2020/12/05 00:57:40;;;;;;;0.30;0.30;;;3.10;99.90;;;;;;5053885;28;20231;-62
2020/12/05 01:00:06;;;;;;;0.30;0.30;;;3.10;99.90;;;;;;5038992;28;20166;-61
2020/12/05 01:02:32;;;;;;;0.30;0.30;;;3.00;99.90;;;;;;5033957;28;20193;-62
2020/12/05 01:04:58;;;;;;;0.30;0.30;;;3.00;99.90;;;;;;5046040;28;20184;-61
2020/12/05 01:07:27;;;;;;;0.73;0.73;;;3.00;99.90;;;;;;5054321;28;20169;-62
2020/12/05 01:09:55;;;;;;;0.30;0.30;;;3.00;99.90;;;;;;5043219;28;20264;-61
2020/12/05 01:12:21;;;;;;;0.50;0.50;;;3.00;99.90;;;;;;5033580;28;20200;-61
2020/12/05 01:14:47;;;;;;;0.82;0.82;;;3.00;99.90;;;;;;5043558;28;20216;-61
2020/12/05 01:17:13;;;;;;;0.93;0.93;;;3.00;99.90;;;;;;5053579;28;20572;-62
2020/12/05 01:19:39;;;;;;;0.30;0.30;;;3.10;99.90;;;;;;5044550;28;20182;-63
2020/12/05 01:22:04;;;;;;;0.30;0.30;;;3.20;99.90;;;;;;5036976;28;20443;-62
2020/12/05 01:24:30;;;;;;;0.70;0.70;;;3.20;99.90;;;;;;5052235;28;20263;-62
2020/12/05 01:26:56;;;;;;;0.40;0.40;;;3.20;99.90;;;;;;5050545;28;20264;-62
2020/12/05 01:29:21;;;;;;;0.73;0.73;;;3.20;99.90;;;;;;5033027;28;20184;-62
2020/12/05 01:31:48;;;;;;;0.33;0.33;;;3.20;99.90;;;;;;5032982;28;20573;-61
2020/12/05 01:34:14;;;;;;;0.43;0.43;;;3.20;99.90;;;;;;5021480;28;20549;-61
2020/12/05 01:36:44;;;;;;;0.43;0.43;;;3.30;99.90;;;;;;5033207;28;20178;-61
2020/12/05 01:39:10;;;;;;;0.40;0.40;;;3.30;99.90;;;;;;5050334;28;20170;-60
2020/12/05 01:41:36;;;;;;;0.30;0.30;;;3.30;99.90;;;;;;5052780;28;20200;-61
2020/12/05 01:44:02;;;;;;;1.05;1.05;;;3.40;99.90;;;;;;5034943;28;20217;-62
2020/12/05 01:46:37;;;;;;;1.20;1.20;;;3.40;99.90;;;;;;5033292;28;20170;-62
2020/12/05 01:49:05;;;;;;;1.48;1.42;;;3.40;99.90;;;;;;5037304;28;20177;-62
2020/12/05 01:51:31;;;;;;;0.30;0.30;;;3.50;99.90;;;;;;5036511;28;20277;-62
2020/12/05 01:53:57;;;;;;;1.00;0.90;;;3.50;99.90;;;;;;5038201;28;20225;-62
2020/12/05 01:56:26;;;;;;;2.30;2.20;;;3.60;99.90;;;;;;5037476;28;20417;-62
2020/12/05 01:58:52;;;;;;;0.30;0.30;;;3.60;99.90;;;;;;5051550;28;20467;-61
2020/12/05 02:01:23;;;;;;;3.80;1.70;;;3.60;99.90;;;;;;5056770;28;20201;-61
2020/12/05 02:03:51;;;;;;;0.40;0.40;;;3.60;99.90;;;;;;5043236;28;20427;-60
2020/12/05 02:06:37;;;;;;;0.30;0.30;;;3.60;99.90;;;;;;5037210;28;20173;-61
2020/12/05 02:09:09;;;;;;;0.77;0.77;;;3.60;99.90;;;;;;5015730;28;20198;-60
2020/12/05 02:11:39;;;;;;;0.30;0.30;;;3.50;99.90;;;;;;5036687;28;20212;-61
2020/12/05 02:14:09;;;;;;;0.40;0.40;;;3.50;99.90;;;;;;5036617;28;20182;-60
2020/12/05 02:16:35;;;;;;;0.40;0.40;;;3.60;99.90;;;;;;5035698;28;20209;-61
2020/12/05 02:19:02;;;;;;;0.40;0.40;;;3.50;99.90;;;;;;5050894;28;20220;-60
2020/12/05 02:21:29;;;;;;;0.45;0.45;;;3.40;99.90;;;;;;5054630;28;20443;-61
2020/12/05 02:23:59;;;;;;;0.30;0.30;;;3.30;99.90;;;;;;5056715;28;20249;-61
2020/12/05 02:26:27;;;;;;;0.40;0.40;;;3.30;99.90;;;;;;5044414;28;20637;-61
2020/12/05 02:28:53;;;;;;;0.70;0.70;;;3.20;99.90;;;;;;5042133;28;20228;-60
2020/12/05 02:31:19;;;;;;;0.40;0.40;;;3.20;99.90;;;;;;5056052;28;20189;-62
2020/12/05 02:33:44;;;;;;;0.40;0.40;;;3.30;99.90;;;;;;5052351;28;20186;-62
2020/12/05 02:36:11;;;;;;;1.33;1.23;;;3.20;99.90;;;;;;5036370;28;20209;-61
2020/12/05 02:38:46;;;;;;;0.40;0.40;;;3.20;99.90;;;;;;5038537;28;20202;-61
2020/12/05 02:41:11;;;;;;;0.40;0.40;;;3.00;99.90;;;;;;5055957;28;20196;-61
2020/12/05 02:43:37;;;;;;;2.40;1.23;;;3.10;99.90;;;;;;5054075;28;20186;-61
2020/12/05 02:46:03;;;;;;;0.40;0.40;;;3.00;99.90;;;;;;5036306;28;20174;-62
2020/12/05 02:48:29;;;;;;;0.30;0.30;;;2.90;99.90;;;;;;5048100;28;20201;-60
2020/12/05 02:50:54;;;;;;;0.77;0.73;;;2.80;99.90;;;;;;5055836;28;20521;-62
2020/12/05 02:53:20;;;;;;;0.80;0.80;;;2.70;99.90;;;;;;5045653;28;20190;-62
2020/12/05 02:55:46;;;;;;;0.30;0.30;;;2.70;99.90;;;;;;5035912;28;20667;-63
2020/12/05 02:58:11;;;;;;;1.23;1.23;;;2.60;99.90;;;;;;5044239;28;20229;-63
2020/12/05 03:00:37;;;;;;;0.30;0.30;;;2.50;99.90;;;;;;5055217;28;20624;-62
2020/12/05 03:03:02;;;;;;;0.30;0.30;;;2.50;99.90;;;;;;5043613;28;20658;-62
2020/12/05 03:05:29;;;;;;;0.40;0.40;;;2.40;99.90;;;;;;5036194;28;20170;-62
2020/12/05 03:07:55;;;;;;;0.55;0.55;;;2.40;99.90;;;;;;5046857;28;20262;-64
2020/12/05 03:10:20;;;;;;;0.30;0.30;;;2.30;99.90;;;;;;5057628;28;20197;-63
2020/12/05 03:12:46;;;;;;;0.40;0.40;;;2.20;99.90;;;;;;5047125;28;20201;-63
2020/12/05 03:15:12;;;;;;;0.30;0.30;;;2.20;99.90;;;;;;5035560;28;20660;-63
2020/12/05 03:17:37;;;;;;;0.30;0.30;;;2.30;99.90;;;;;;5035879;28;20212;-63
2020/12/05 03:20:06;;;;;;;0.30;0.30;;;2.30;99.90;;;;;;5035500;28;20405;-62
2020/12/05 03:22:32;;;;;;;0.40;0.40;;;2.30;99.90;;;;;;5040864;28;20198;-62
2020/12/05 03:24:57;;;;;;;0.47;0.47;;;2.20;99.90;;;;;;5055864;28;20192;-62
2020/12/05 03:27:23;;;;;;;0.50;0.50;;;2.20;99.90;;;;;;5053881;28;20183;-62
2020/12/05 03:29:51;;;;;;;0.73;0.70;;;2.20;99.90;;;;;;5055166;28;20170;-62
2020/12/05 03:32:23;;;;;;;0.30;0.30;;;2.20;99.90;;;;;;5036086;28;20332;-62
2020/12/05 03:34:49;;;;;;;0.40;0.40;;;2.10;99.90;;;;;;5035531;28;20261;-62
2020/12/05 03:37:15;;;;;;;0.40;0.40;;;2.10;99.90;;;;;;5053532;28;20335;-61
2020/12/05 03:39:40;;;;;;;0.30;0.30;;;2.00;99.90;;;;;;5055168;28;20412;-63
2020/12/05 03:42:06;;;;;;;0.30;0.30;;;2.10;99.90;;;;;;5037080;28;20747;-61
2020/12/05 03:44:31;;;;;;;0.50;0.50;;;2.10;99.90;;;;;;5035415;28;20190;-63
2020/12/05 03:46:57;;;;;;;0.40;0.40;;;2.10;99.90;;;;;;5035465;28;20249;-61
2020/12/05 03:49:30;;;;;;;0.37;0.37;;;2.10;99.90;;;;;;5035458;28;20208;-63
2020/12/05 03:51:56;;;;;;;4.03;1.25;;;2.10;99.90;;;;;;5046786;28;20489;-63
2020/12/05 03:54:22;;;;;;;0.40;0.40;;;2.20;99.90;;;;;;5035144;28;20181;-61
2020/12/05 03:56:47;;;;;;;1.97;1.87;;;2.30;99.90;;;;;;5035142;28;20424;-63
2020/12/05 03:59:13;;;;;;;0.30;0.30;;;2.30;99.90;;;;;;5035258;28;20721;-61
2020/12/05 04:01:39;;;;;;;0.47;0.47;;;2.30;99.90;;;;;;5044941;28;20190;-62
2020/12/05 04:04:04;;;;;;;1.03;1.03;;;2.30;99.90;;;;;;5054826;28;20166;-61
2020/12/05 04:06:30;;;;;;;0.67;0.67;;;2.20;99.90;;;;;;5045771;28;20182;-64
2020/12/05 04:08:55;;;;;;;0.37;0.37;;;2.20;99.90;;;;;;5034780;28;20178;-62
2020/12/05 04:11:21;;;;;;;0.30;0.30;;;2.10;99.90;;;;;;5033358;28;20252;-64
2020/12/05 04:13:47;;;;;;;0.40;0.40;;;2.10;99.90;;;;;;5034871;28;20184;-62
2020/12/05 04:16:12;;;;;;;0.30;0.30;;;2.10;99.90;;;;;;5034696;28;20177;-63
2020/12/05 04:18:38;;;;;;;0.40;0.40;;;2.10;99.90;;;;;;5034947;28;20229;-64
2020/12/05 04:21:05;;;;;;;0.40;0.40;;;2.10;99.90;;;;;;5054089;28;20424;-63
2020/12/05 04:23:31;;;;;;;0.75;0.75;;;2.20;99.90;;;;;;5054543;28;20243;-63
2020/12/05 04:25:57;;;;;;;0.40;0.40;;;2.10;99.90;;;;;;5035143;28;20178;-62
2020/12/05 04:28:22;;;;;;;0.80;0.80;;;2.20;99.90;;;;;;5042575;28;20181;-64
2020/12/05 04:30:48;;;;;;;0.40;0.40;;;2.20;99.90;;;;;;5054159;28;20179;-63
2020/12/05 04:33:14;;;;;;;0.40;0.40;;;2.20;99.90;;;;;;5047447;28;20170;-62
2020/12/05 04:35:39;;;;;;;0.50;0.50;;;2.30;99.90;;;;;;5034535;28;20536;-61
2020/12/05 04:38:05;;;;;;;0.40;0.40;;;2.20;99.90;;;;;;5043337;28;20200;-62
2020/12/05 04:40:31;;;;;;;0.30;0.30;;;2.20;99.90;;;;;;5033263;28;20178;-63
2020/12/05 04:43:01;;;;;;;0.30;0.30;;;2.30;99.90;;;;;;5034301;28;20792;-61
2020/12/05 04:45:27;;;;;;;0.30;0.30;;;2.30;99.90;;;;;;5034767;28;20636;-61
2020/12/05 04:47:55;;;;;;;0.50;0.50;;;2.40;99.90;;;;;;5041486;28;20264;-63
2020/12/05 04:50:23;;;;;;;0.73;0.73;;;2.30;99.90;;;;;;5053751;28;20169;-62
2020/12/05 04:52:50;;;;;;;0.30;0.30;;;2.30;99.90;;;;;;5045527;28;20206;-63
2020/12/05 04:55:16;;;;;;;0.50;0.50;;;2.30;99.90;;;;;;5034032;28;20178;-61
2020/12/05 04:57:56;;;;;;;0.30;0.30;;;2.30;99.90;;;;;;5034333;28;20221;-63
2020/12/05 05:00:22;;;;;;;0.60;0.60;;;2.30;99.90;;;;;;5032294;28;20244;-61
2020/12/05 05:02:48;;;;;;;0.30;0.30;;;2.30;99.90;;;;;;5039944;28;20200;-62
2020/12/05 05:05:15;;;;;;;0.30;0.30;;;2.40;99.90;;;;;;5052602;28;20499;-61
2020/12/05 05:07:51;;;;;;;0.50;0.50;;;2.40;99.90;;;;;;5033957;28;20228;-61
2020/12/05 05:10:25;;;;;;;0.50;0.50;;;2.40;99.90;;;;;;5033456;28;20189;-61
2020/12/05 05:13:01;;;;;;;0.30;0.30;;;2.40;99.90;;;;;;5053596;28;20272;-62
2020/12/05 05:15:29;;;;;;;0.68;0.68;;;2.40;99.90;;;;;;5052333;28;20170;-61
2020/12/05 05:18:00;;;;;;;0.82;0.82;;;2.40;99.90;;;;;;5033436;28;20632;-62
2020/12/05 05:20:27;;;;;;;0.40;0.40;;;2.40;99.90;;;;;;5033753;28;20170;-62
2020/12/05 05:23:09;;;;;;;1.30;1.30;;;2.40;99.90;;;;;;5053181;28;20189;-62
2020/12/05 05:25:52;;;;;;;0.95;0.95;;;2.40;99.90;;;;;;5052092;28;20227;-62
2020/12/05 05:28:31;;;;;;;0.40;0.40;;;2.30;99.90;;;;;;5033304;28;20191;-62
2020/12/05 05:31:04;;;;;;;0.30;0.30;;;2.40;99.90;;;;;;5036584;28;20193;-62
2020/12/05 05:33:56;;;;;;;0.35;0.35;;;2.40;99.90;;;;;;5033356;28;20506;-61
2020/12/05 05:36:29;;;;;;;0.30;0.30;;;2.40;99.90;;;;;;5011888;28;20253;-62
2020/12/05 05:39:07;;;;;;;0.50;0.50;;;2.40;99.90;;;;;;5019319;28;20255;-61
2020/12/05 05:41:36;;;;;;;1.45;1.40;;;2.50;99.90;;;;;;5052855;28;20751;-62
2020/12/05 05:44:10;;;;;;;0.30;0.30;;;2.50;99.90;;;;;;5049854;28;20186;-61
2020/12/05 05:46:42;;;;;;;0.32;0.32;;;2.50;99.90;;;;;;5033440;28;20179;-62
2020/12/05 05:49:10;;;;;;;0.30;0.30;;;2.60;99.90;;;;;;5035095;28;20228;-62
2020/12/05 05:51:43;;;;;;;1.88;1.77;;;2.60;99.90;;;;;;5052381;28;20260;-62
2020/12/05 05:54:20;;;;;;;0.40;0.40;;;2.60;99.90;;;;;;5049825;28;20193;-62
2020/12/05 05:56:57;;;;;;;0.30;0.30;;;2.60;99.90;;;;;;5033239;28;20173;-62
2020/12/05 05:59:25;;;;;;;0.30;0.30;;;2.70;99.90;;;;;;5037484;28;20248;-63
2020/12/05 06:01:52;;;;;;;0.40;0.40;;;2.70;99.90;;;;;;5052159;28;20227;-62
2020/12/05 06:04:31;;;;;;;0.40;0.40;;;2.70;99.90;;;;;;5024083;28;20595;-62
2020/12/05 06:06:59;;;;;;;0.88;0.88;;;2.70;99.90;;;;;;5033063;28;20177;-63
2020/12/05 06:09:48;;;;;;;0.40;0.40;;;2.70;99.90;;;;;;5053144;28;20181;-62
2020/12/05 06:12:34;;;;;;;0.30;0.30;;;2.70;99.90;;;;;;5050742;28;20190;-62
2020/12/05 06:15:00;;;;;;;0.30;0.30;;;2.70;99.90;;;;;;5033256;28;20501;-62
2020/12/05 06:17:27;;;;;;;0.30;0.30;;;2.70;99.90;;;;;;5035789;28;20193;-62
2020/12/05 06:19:56;;;;;;;0.30;0.30;;;2.70;99.90;;;;;;5052563;28;20554;-62
2020/12/05 06:22:38;;;;;;;0.43;0.43;;;2.60;99.90;;;;;;5050750;28;20197;-62
2020/12/05 06:25:15;;;;;;;0.40;0.40;;;2.70;99.90;;;;;;5033448;28;20202;-61
2020/12/05 06:27:49;;;;;;;0.63;0.63;;;2.60;99.90;;;;;;5044909;28;20263;-63
2020/12/05 06:30:15;;;;;;;0.30;0.30;;;2.60;99.90;;;;;;5051964;28;20204;-63
2020/12/05 06:32:45;;;;;;;0.70;0.70;;;2.60;99.90;;;;;;5032931;28;20190;-62
2020/12/05 06:35:22;;;;;;;0.60;0.60;;;2.60;99.90;;;;;;5035007;28;20428;-62
2020/12/05 06:37:55;;;;;;;0.57;0.57;;;2.50;99.90;;;;;;5016725;28;20253;-62
2020/12/05 06:40:22;;;;;;;0.30;0.30;;;2.50;99.90;;;;;;5016733;28;20536;-62
2020/12/05 06:42:53;;;;;;;0.40;0.40;;;2.50;99.90;;;;;;5016721;28;20190;-62
2020/12/05 06:45:27;;;;;;;0.40;0.40;;;2.50;99.90;;;;;;5017360;28;20589;-61
2020/12/05 06:48:16;;;;;;;0.30;0.30;;;2.50;99.90;;;;;;5016587;28;20264;-64
2020/12/05 06:50:44;;;;;;;0.82;0.82;;;2.50;99.90;;;;;;5019553;28;20195;-61
2020/12/05 06:53:36;;;;;;;0.30;0.30;;;2.60;99.90;;;;;;5056000;28;20189;-61
2020/12/05 06:56:16;;;;;;;1.02;1.02;;;2.60;99.90;;;;;;5049934;28;20221;-61
2020/12/05 06:58:42;;;;;;;0.40;0.40;;;2.60;99.90;;;;;;5037022;28;20542;-60
2020/12/05 07:01:08;;;;;;;0.30;0.30;;;2.60;99.90;;;;;;5055800;28;20223;-63
2020/12/05 07:03:33;;;;;;;0.30;0.30;;;2.60;99.90;;;;;;5050838;28;20432;-62
2020/12/05 07:05:59;;;;;;;0.30;0.30;;;2.70;99.90;;;;;;5054403;28;20682;-62
2020/12/05 07:08:32;;;;;;;0.30;0.30;;;2.70;99.90;;;;;;5055718;28;20188;-62
2020/12/05 07:11:01;;;;;;;0.30;0.30;;;2.70;99.90;;;;;;5035490;28;20401;-61
2020/12/05 07:13:51;;;;;;;0.50;0.50;;;2.70;99.90;;;;;;5033712;28;20174;-62
2020/12/05 07:16:20;;;;;;;0.30;0.30;;;2.70;99.90;;;;;;5010270;28;20207;-61
2020/12/05 07:18:49;;;;;;;0.30;0.30;;;2.70;99.90;;;;;;5015410;28;20688;-61
2020/12/05 07:21:15;;;;;;;1.02;1.02;;;2.70;99.90;;;;;;5054298;28;20205;-62
2020/12/05 07:23:41;;;;;;;0.30;0.30;;;2.70;99.90;;;;;;5049087;28;20598;-63
2020/12/05 07:26:07;;;;;;;0.45;0.45;;;2.80;99.90;;;;;;5035855;28;20533;-62
2020/12/05 07:28:34;;;;;;;0.30;0.30;;;2.80;99.90;;;;;;5048805;28;20177;-62
2020/12/05 07:31:00;;;;;;;0.70;0.70;;;2.80;99.90;;;;;;5055023;28;20166;-62
2020/12/05 07:33:28;;;;;;;0.30;0.30;;;2.80;99.90;;;;;;5042304;28;20182;-62
2020/12/05 07:35:58;;;;;;;0.30;0.30;;;2.80;99.90;;;;;;5034019;28;20170;-61
2020/12/05 07:38:27;;;;;;;0.30;0.30;;;2.90;99.90;;;;;;5031735;28;20281;-62
2020/12/05 07:40:53;;;;;;;2.75;2.65;;;2.90;99.90;;;;;;5033620;28;20174;-61
2020/12/05 07:43:20;;;;;;;0.40;0.40;;;2.90;99.90;;;;;;5034126;28;20652;-61
2020/12/05 07:45:48;;;;;;;0.30;0.30;;;3.00;99.90;;;;;;5033838;28;20667;-61
2020/12/05 07:48:16;;;;;;;0.85;0.77;;;2.90;99.90;;;;;;5033879;28;20177;-63
2020/12/05 07:50:42;;;;;;;0.30;0.30;;;3.00;99.90;;;;;;5030834;28;20544;-63
2020/12/05 07:53:29;;;;;;;0.40;0.40;;;3.00;99.90;;;;;;5033669;28;20181;-65
2020/12/05 07:55:57;;;;;;;0.70;0.70;;;2.90;99.90;;;;;;5032115;28;20178;-67
2020/12/05 07:58:23;;;;;;;0.30;0.30;;;2.90;99.90;;;;;;5030893;28;20190;-66
2020/12/05 08:00:53;;;;;;;0.38;0.38;;;2.90;99.90;;;;;;5035230;28;20220;-67
2020/12/05 08:03:54;;;;;;;0.40;0.40;;;2.90;99.90;;;;;;5033472;28;20265;-66
2020/12/05 08:06:51;;;;;;;0.45;0.45;;;3.00;99.90;;;;;;4989746;28;20180;-65
2020/12/05 08:09:29;;;;;;;0.88;0.88;;;3.10;99.90;;;;;;5054715;28;20162;-66
2020/12/05 08:11:55;;;;;;;0.73;0.73;;;3.10;99.90;;;;;;5042457;28;20256;-64
2020/12/05 08:14:22;;;;;;;0.30;0.30;;;3.10;99.90;;;;;;5033117;28;20178;-66
2020/12/05 08:16:48;;;;;;;0.30;0.30;;;3.20;99.90;;;;;;5034546;28;20244;-65
2020/12/05 08:19:15;;;;;;;0.30;0.30;;;3.20;99.90;;;;;;5034631;28;20632;-69
2020/12/05 08:21:41;;;;;;;0.57;0.57;;;3.20;99.90;;;;;;5034003;28;20428;-68
2020/12/05 08:24:10;;;;;;;0.30;0.30;;;3.20;99.90;;;;;;5034463;28;20252;-67
2020/12/05 08:26:37;;;;;;;1.33;1.30;;;3.30;99.90;;;;;;5035412;28;20409;-67
2020/12/05 08:29:05;;;;;;;0.30;0.30;;;3.30;99.90;;;;;;5033336;28;20174;-67
2020/12/05 08:31:32;;;;;;;0.30;0.30;;;3.30;99.90;;;;;;5032971;28;20236;-70
2020/12/05 08:33:57;;;;;;;0.30;0.30;;;3.40;99.90;;;;;;5033526;28;20170;-67
2020/12/05 08:36:33;;;;;;;0.30;0.30;;;3.50;99.90;;;;;;5034614;28;20224;-64
2020/12/05 08:39:05;;;;;;;0.30;0.30;;;3.50;99.90;;;;;;5031546;28;20197;-62
2020/12/05 08:41:47;;;;;;;0.40;0.40;;;3.60;99.90;;;;;;5044064;28;20683;-62
2020/12/05 08:44:15;;;;;;;0.30;0.30;;;3.50;99.90;;;;;;5033892;28;20260;-62
2020/12/05 08:46:41;;;;;;;0.40;0.40;;;3.50;99.90;;;;;;5046244;28;20169;-62
2020/12/05 08:49:18;;;;;;;0.50;0.50;;;3.50;99.90;;;;;;5053928;28;20174;-64
2020/12/05 08:51:49;;;;;;;0.30;0.30;;;3.50;99.90;;;;;;5041496;28;20640;-64
2020/12/05 08:54:16;;;;;;;0.30;0.30;;;3.50;99.90;;;;;;5051362;28;20250;-68
2020/12/05 08:56:42;;;;;;;0.75;0.75;;;3.50;99.90;;;;;;5042250;28;20193;-63
2020/12/05 08:59:08;;;;;;;0.47;0.47;;;3.50;99.90;;;;;;5033539;28;20239;-62
2020/12/05 09:01:44;;;;;;;0.30;0.30;;;3.50;99.90;;;;;;5042314;28;20186;-63
2020/12/05 09:04:13;;;;;;;0.30;0.30;;;3.50;99.90;;;;;;5053930;28;20179;-63
2020/12/05 09:06:41;;;;;;;0.30;0.30;;;3.40;99.90;;;;;;5044388;28;20197;-64
2020/12/05 09:09:07;;;;;;;2.05;0.85;;;3.50;99.90;;;;;;5033784;28;20216;-64
2020/12/05 09:11:33;;;;;;;0.77;0.60;;;3.50;99.90;;;;;;5040480;28;20221;-64
2020/12/05 09:13:58;;;;;;;0.30;0.27;;;3.50;99.90;;;;;;5046023;28;20620;-66
2020/12/05 09:16:34;;;;;;;0.73;0.70;;;3.50;99.90;;;;;;5033778;28;20170;-67
2020/12/05 09:19:00;;;;;;;0.40;0.40;;;3.50;99.90;;;;;;5048119;28;20200;-68
2020/12/05 09:21:26;;;;;;;0.40;0.40;;;3.50;99.90;;;;;;5051221;28;20189;-68
2020/12/05 09:24:05;;;;;;;0.80;0.80;;;3.50;99.90;;;;;;5053449;28;20272;-67
2020/12/05 09:26:35;;;;;;;0.50;0.50;;;3.50;99.90;;;;;;5049375;28;20546;-68
2020/12/05 09:29:01;;;;;;;0.32;0.32;;;3.50;99.90;;;;;;5050289;28;20177;-66
2020/12/05 09:31:26;;;;;;;4.50;1.40;;;3.50;99.90;;;;;;5032946;28;20588;-66
2020/12/05 09:33:52;;;;;;;0.67;0.67;;;3.50;99.90;;;;;;5033295;28;20174;-68
2020/12/05 09:36:18;;;;;;;0.40;0.40;;;3.60;99.90;;;;;;5033417;28;20224;-66
2020/12/05 09:38:43;;;;;;;0.60;0.60;;;3.70;99.90;;;;;;5033176;28;20210;-66
2020/12/05 09:41:09;;;;;;;0.30;0.30;;;3.70;99.90;;;;;;5032986;28;20463;-68
2020/12/05 09:43:35;;;;;;;0.40;0.40;;;3.70;99.90;;;;;;5032755;28;20181;-68
2020/12/05 09:46:01;;;;;;;0.30;0.30;;;3.80;99.90;;;;;;5033255;28;20656;-69
2020/12/05 09:48:26;;;;;;;0.33;0.33;;;3.80;99.90;;;;;;5033281;28;20178;-68
2020/12/05 09:50:52;;;;;;;0.33;0.33;;;3.80;99.90;;;;;;5032604;28;20192;-67
2020/12/05 09:53:17;;;;;;;0.93;0.70;;;3.80;99.90;;;;;;5032434;28;20398;-68
2020/12/05 09:55:43;;;;;;;0.83;0.77;;;3.90;99.90;;;;;;5033034;28;20174;-67
2020/12/05 09:58:09;;;;;;;0.30;0.30;;;3.90;99.90;;;;;;5031755;28;20208;-66
2020/12/05 10:00:35;;;;;;;0.83;0.83;;;3.90;99.90;;;;;;5031214;28;20170;-68
2020/12/05 10:03:00;;;;;;;0.30;0.30;;;3.90;99.90;;;;;;5028931;28;20236;-72
2020/12/05 10:05:26;;;;;;;0.50;0.50;;;4.00;99.90;;;;;;5031129;28;20201;-66
2020/12/05 10:07:52;;;;;;;0.47;0.47;;;4.00;99.90;;;;;;5031574;28;20181;-65
2020/12/05 10:10:18;;;;;;;0.30;0.30;;;4.00;99.90;;;;;;5033237;28;20196;-67
2020/12/05 10:12:44;;;;;;;0.57;0.57;;;4.00;99.90;;;;;;5035426;28;20268;-63
2020/12/05 10:15:14;;;;;;;0.30;0.30;;;4.00;99.90;;;;;;5035727;28;20416;-63
2020/12/05 10:17:42;;;;;;;0.63;0.63;;;4.00;99.90;;;;;;5035405;28;20225;-61
2020/12/05 10:20:07;;;;;;;0.45;0.45;;;4.10;99.90;;;;;;5035217;28;20263;-66
2020/12/05 10:22:33;;;;;;;0.30;0.30;;;4.10;99.90;;;;;;5035346;28;20285;-65
2020/12/05 10:24:59;;;;;;;0.40;0.40;;;4.10;99.90;;;;;;5035191;28;20500;-64
2020/12/05 10:27:25;;;;;;;0.73;0.70;;;4.10;99.90;;;;;;5035475;28;20432;-64
2020/12/05 10:29:51;;;;;;;0.40;0.40;;;4.20;99.90;;;;;;5035451;28;20188;-65
2020/12/05 10:32:18;;;;;;;0.30;0.30;;;4.20;99.90;;;;;;5037083;28;20725;-69
2020/12/05 10:34:44;;;;;;;0.40;0.40;;;4.20;99.90;;;;;;5035238;28;20421;-68
2020/12/05 10:37:10;;;;;;;0.43;0.43;;;4.20;99.90;;;;;;5035246;28;20209;-66
2020/12/05 10:39:35;;;;;;;0.30;0.30;;;4.20;99.90;;;;;;5034989;28;20182;-64
2020/12/05 10:42:01;;;;;;;0.63;0.63;;;4.20;99.90;;;;;;5034847;28;20190;-64
2020/12/05 10:44:27;;;;;;;0.30;0.30;;;4.30;99.90;;;;;;5035159;28;20540;-68
2020/12/05 10:46:53;;;;;;;0.30;0.30;;;4.20;99.90;;;;;;5034911;28;20227;-64
2020/12/05 10:49:19;;;;;;;0.37;0.37;;;4.20;99.90;;;;;;5034922;28;20253;-66
2020/12/05 10:51:46;;;;;;;0.50;0.50;;;4.20;99.90;;;;;;5034298;28;20676;-65
2020/12/05 10:54:12;;;;;;;0.30;0.30;;;4.20;99.90;;;;;;5034766;28;20190;-65
2020/12/05 10:56:39;;;;;;;2.10;2.00;;;4.10;99.90;;;;;;5036518;28;20267;-66
2020/12/05 10:59:06;;;;;;;1.25;1.23;;;4.10;99.90;;;;;;5034471;28;20996;-70
2020/12/05 11:01:32;;;;;;;0.32;0.32;;;4.10;99.90;;;;;;5035395;28;20205;-64
2020/12/05 11:03:57;;;;;;;0.30;0.20;;;4.10;99.90;;;;;;5034675;28;20220;-65
2020/12/05 11:06:24;;;;;;;0.30;0.30;;;4.10;99.90;;;;;;5051530;28;20185;-65
2020/12/05 11:08:51;;;;;;;0.30;0.30;;;4.10;99.90;;;;;;5049619;28;20653;-66
2020/12/05 11:11:17;;;;;;;0.30;0.30;;;4.10;99.90;;;;;;5035290;28;20205;-68
2020/12/05 11:13:43;;;;;;;0.30;0.30;;;4.00;99.90;;;;;;5034918;28;20200;-69
2020/12/05 11:16:08;;;;;;;0.30;0.30;;;4.10;99.90;;;;;;5050247;28;20181;-66
2020/12/05 11:18:34;;;;;;;0.30;0.30;;;4.10;99.90;;;;;;5055542;28;20674;-68
2020/12/05 11:21:00;;;;;;;1.50;1.50;;;4.10;99.90;;;;;;5041585;28;20185;-71
2020/12/05 11:23:26;;;;;;;1.43;1.33;;;4.10;99.90;;;;;;5035725;28;20240;-63
2020/12/05 11:25:52;;;;;;;1.40;1.40;;;4.20;99.90;;;;;;5039327;28;20787;-67
2020/12/05 11:28:17;;;;;;;0.60;0.60;;;4.20;99.90;;;;;;5035687;28;20636;-65
2020/12/05 11:30:43;;;;;;;0.50;0.50;;;4.20;99.90;;;;;;5048188;28;20608;-68
2020/12/05 11:33:09;;;;;;;1.37;1.17;;;4.20;99.90;;;;;;5055582;28;20169;-64
2020/12/05 11:35:35;;;;;;;0.80;0.80;;;4.30;99.90;;;;;;5043541;28;20237;-66
2020/12/05 11:38:01;;;;;;;0.30;0.30;;;4.40;99.90;;;;;;5034614;28;20264;-66
2020/12/05 11:40:27;;;;;;;0.40;0.40;;;4.50;99.90;;;;;;5043472;28;20189;-66
2020/12/05 11:42:53;;;;;;;0.80;0.80;;;4.40;99.90;;;;;;5053569;28;20185;-67
2020/12/05 11:45:18;;;;;;;0.40;0.40;;;4.50;99.90;;;;;;5052363;28;20173;-66
2020/12/05 11:47:44;;;;;;;1.83;1.07;;;4.50;99.90;;;;;;5048107;28;20257;-66
2020/12/05 11:50:10;;;;;;;0.50;0.50;;;4.50;99.90;;;;;;5042537;28;20184;-67
2020/12/05 11:52:35;;;;;;;0.70;0.70;;;4.60;99.90;;;;;;5054769;28;20572;-65
2020/12/05 11:55:01;;;;;;;2.00;1.07;;;4.60;99.90;;;;;;5037290;28;20268;-65
2020/12/05 11:57:27;;;;;;;2.30;2.10;;;4.60;99.90;;;;;;5034827;28;20201;-63
2020/12/05 11:59:52;;;;;;;0.60;0.60;;;4.60;99.90;;;;;;5035294;28;20170;-64
2020/12/05 12:02:18;;;;;;;0.40;0.40;;;4.70;99.90;;;;;;5034595;28;20197;-63
2020/12/05 12:04:44;;;;;;;0.30;0.30;;;4.60;99.90;;;;;;5035937;28;20536;-65
2020/12/05 12:07:09;;;;;;;0.40;0.40;;;4.70;99.90;;;;;;5034469;28;20529;-64
2020/12/05 12:09:35;;;;;;;0.50;0.50;;;4.70;99.90;;;;;;5036435;28;20178;-63
2020/12/05 12:12:01;;;;;;;1.03;0.97;;;4.70;99.90;;;;;;5034494;28;20240;-65
2020/12/05 12:14:27;;;;;;;0.40;0.40;;;4.70;99.90;;;;;;5034168;28;20208;-64
2020/12/05 12:16:53;;;;;;;0.30;0.30;;;4.70;99.90;;;;;;5034579;28;20198;-64
2020/12/05 12:19:19;;;;;;;0.30;0.30;;;4.80;99.90;;;;;;5034746;28;20431;-63
2020/12/05 12:21:44;;;;;;;0.30;0.30;;;4.80;99.90;;;;;;5034096;28;20417;-65
2020/12/05 12:24:10;;;;;;;0.30;0.30;;;4.80;99.90;;;;;;5041298;28;20424;-64
2020/12/05 12:26:36;;;;;;;0.30;0.30;;;4.70;99.90;;;;;;5054375;28;20170;-64
2020/12/05 12:29:01;;;;;;;1.03;1.03;;;4.70;99.90;;;;;;5047885;28;20296;-63
2020/12/05 12:31:27;;;;;;;0.33;0.33;;;4.70;99.90;;;;;;5037452;28;20323;-64
2020/12/05 12:33:53;;;;;;;0.37;0.37;;;4.70;99.90;;;;;;5054007;28;20173;-65
2020/12/05 12:36:20;;;;;;;0.50;0.50;;;4.70;99.90;;;;;;5051754;28;20432;-65
2020/12/05 12:38:46;;;;;;;0.30;0.30;;;4.70;99.90;;;;;;5046270;28;20205;-65
2020/12/05 12:41:16;;;;;;;0.30;0.30;;;4.70;99.90;;;;;;5033657;28;20196;-64
2020/12/05 12:43:42;;;;;;;0.30;0.30;;;4.60;99.90;;;;;;5033704;28;20540;-64
2020/12/05 12:46:08;;;;;;;0.30;0.30;;;4.60;99.90;;;;;;5035318;28;20644;-63
2020/12/05 12:50:59;;;;;;;0.30;0.30;;;4.60;99.90;;;;;;5033577;28;20162;-64
2020/12/05 12:53:25;;;;;;;0.60;0.60;;;4.60;99.90;;;;;;5033683;28;20193;-65
2020/12/05 12:55:51;;;;;;;0.30;0.30;;;4.70;99.90;;;;;;5033946;28;20228;-64
2020/12/05 12:58:27;;;;;;;0.30;0.30;;;4.60;99.90;;;;;;5033624;28;20675;-63
2020/12/05 13:00:53;;;;;;;1.73;1.10;;;4.70;99.90;;;;;;5033321;28;20540;-63
2020/12/05 13:03:18;;;;;;;2.78;2.58;;;4.60;99.90;;;;;;5033690;28;20178;-66
2020/12/05 13:05:44;;;;;;;0.37;0.37;;;4.70;99.90;;;;;;5033937;28;20246;-63